Time;durP1;ratioP1;P1;durP2;ratioP2;P2;SDS_P1;SDS_P2;PMS_P1;PMS_P2;Temp;Humidity;BMP_temperature;BMP_pressure;BME280_temperature;BME280_humidity;BME280_pressure;Samples;Min_cycle;Max_cycle;Signal;HPM_P1;HPM_P2
2022/08/05 00:01:32;;;;;;;20.75;15.38;;;;;;;22.66;58.33;100439.50;4916894;29;20055;-81
2022/08/05 00:04:16;;;;;;;21.88;15.73;;;;;;;22.67;58.68;100443.88;4916929;29;20056;-79
2022/08/05 00:06:44;;;;;;;20.02;16.02;;;;;;;22.43;58.82;100413.72;4917988;29;20056;-80
2022/08/05 00:09:13;;;;;;;21.92;16.35;;;;;;;22.53;58.83;100433.75;4932545;29;20056;-79
2022/08/05 00:11:47;;;;;;;22.55;15.73;;;;;;;22.52;58.84;100453.34;4915148;29;20060;-78
2022/08/05 00:14:26;;;;;;;20.27;15.45;;;;;;;22.42;59.33;100439.47;4915294;29;20066;-80
2022/08/05 00:16:58;;;;;;;20.50;16.00;;;;;;;22.26;59.28;100433.88;4898244;29;20057;-78
2022/08/05 00:19:27;;;;;;;22.20;16.83;;;;;;;22.28;59.58;100440.00;4897611;29;20056;-79
2022/08/05 00:22:01;;;;;;;20.80;15.52;;;;;;;22.29;59.53;100452.38;4897728;29;20056;-78
2022/08/05 00:24:30;;;;;;;21.63;14.90;;;;;;;22.21;59.72;100451.72;4881061;29;20403;-81
2022/08/05 00:26:58;;;;;;;21.27;15.65;;;;;;;22.00;59.86;100399.28;4897428;29;20083;-81
2022/08/05 00:29:25;;;;;;;21.30;16.02;;;;;;;22.16;59.99;100436.88;4897680;29;20064;-79
2022/08/05 00:32:04;;;;;;;21.80;16.05;;;;;;;22.04;60.32;100428.38;4921581;29;20059;-79
2022/08/05 00:34:43;;;;;;;23.00;16.33;;;;;;;22.06;60.51;100439.84;4935202;29;20059;-79
2022/08/05 00:37:30;;;;;;;21.40;16.27;;;;;;;21.86;60.71;100421.91;4937538;28;20055;-79
2022/08/05 00:40:18;;;;;;;20.20;15.48;;;;;;;21.95;61.07;100449.97;4939089;28;20126;-81
2022/08/05 00:42:59;;;;;;;20.13;16.13;;;;;;;21.89;60.95;100451.06;4938806;29;20549;-79
2022/08/05 00:45:27;;;;;;;20.65;16.30;;;;;;;21.83;61.21;100447.72;4937717;29;20059;-78
2022/08/05 00:48:12;;;;;;;19.95;16.27;;;;;;;21.68;61.87;100441.13;4939096;29;20521;-79
2022/08/05 00:50:41;;;;;;;22.60;17.17;;;;;;;21.51;62.00;100441.72;4929924;29;20048;-81
2022/08/05 00:53:12;;;;;;;24.75;17.45;;;;;;;21.55;62.59;100440.66;4924185;29;20080;-79
2022/08/05 00:56:01;;;;;;;20.88;17.20;;;;;;;21.44;62.63;100454.31;4919807;29;20052;-80
2022/08/05 00:58:31;;;;;;;22.73;17.00;;;;;;;21.42;62.93;100453.53;4920404;29;20055;-79
2022/08/05 01:00:58;;;;;;;25.90;17.75;;;;;;;21.35;63.12;100449.25;4923753;29;20060;-77
2022/08/05 01:03:28;;;;;;;23.98;18.02;;;;;;;21.36;63.12;100445.72;4924728;29;20115;-78
2022/08/05 01:05:59;;;;;;;21.88;17.27;;;;;;;21.35;63.23;100446.59;4919429;29;20060;-81
2022/08/05 01:08:26;;;;;;;21.42;17.52;;;;;;;21.38;63.24;100445.63;4919440;29;20052;-81
2022/08/05 01:11:33;;;;;;;24.38;16.85;;;;;;;21.38;62.85;100440.31;4919691;29;20063;-80
2022/08/05 01:14:35;;;;;;;22.83;17.20;;;;;;;21.42;62.94;100429.59;4917915;29;20434;-79
2022/08/05 01:17:45;;;;;;;23.25;18.25;;;;;;;21.44;62.86;100426.88;4910415;29;20574;-80
2022/08/05 01:20:39;;;;;;;23.95;17.80;;;;;;;21.47;62.58;100419.69;4914671;29;20067;-81
2022/08/05 01:23:25;;;;;;;22.15;17.63;;;;;;;21.59;62.38;100433.47;4933792;29;20529;-80
2022/08/05 01:26:22;;;;;;;23.08;17.13;;;;;;;21.58;62.46;100435.28;4918736;29;20084;-81
2022/08/05 01:29:00;;;;;;;20.63;16.70;;;;;;;21.58;61.97;100443.25;4933859;29;20059;-79
2022/08/05 01:31:53;;;;;;;21.90;16.63;;;;;;;21.56;61.74;100447.75;4949902;29;20128;-81
2022/08/05 01:34:26;;;;;;;22.30;17.35;;;;;;;21.61;62.14;100452.91;4935442;29;20056;-79
2022/08/05 01:37:08;;;;;;;20.10;16.73;;;;;;;21.54;62.14;100443.41;4949150;29;20083;-80
2022/08/05 01:39:54;;;;;;;22.38;17.27;;;;;;;21.51;62.32;100443.47;4934658;29;20059;-77
2022/08/05 01:42:26;;;;;;;20.95;17.02;;;;;;;21.47;62.61;100464.00;4935732;29;20067;-79
2022/08/05 01:44:59;;;;;;;22.80;17.90;;;;;;;21.33;63.14;100453.75;4935555;29;20056;-79
2022/08/05 01:47:31;;;;;;;25.70;18.17;;;;;;;21.02;63.59;100406.91;4932669;29;20063;-79
2022/08/05 01:50:17;;;;;;;25.80;18.42;;;;;;;21.10;63.68;100429.69;4919346;29;20055;-83
2022/08/05 01:53:00;;;;;;;25.33;18.98;;;;;;;21.16;63.85;100453.41;4919662;29;20052;-83
2022/08/05 01:55:31;;;;;;;22.73;18.48;;;;;;;21.20;63.77;100449.75;4919597;29;20066;-82
2022/08/05 01:58:04;;;;;;;26.15;17.95;;;;;;;21.25;63.55;100445.16;4919145;29;20052;-82
2022/08/05 02:00:54;;;;;;;23.90;18.00;;;;;;;21.36;63.28;100464.31;4934078;29;20052;-83
2022/08/05 02:03:35;;;;;;;23.52;17.95;;;;;;;21.36;62.63;100426.22;4919285;29;20060;-82
2022/08/05 02:06:05;;;;;;;24.13;17.77;;;;;;;21.57;62.30;100438.84;4919112;29;20063;-80
2022/08/05 02:08:53;;;;;;;24.52;18.30;;;;;;;21.76;62.00;100457.72;4918793;29;20055;-79
2022/08/05 02:11:31;;;;;;;22.38;17.38;;;;;;;21.75;62.05;100458.66;4930284;29;20510;-78
2022/08/05 02:14:07;;;;;;;24.17;17.52;;;;;;;21.43;62.91;100465.88;4918866;29;20111;-79
2022/08/05 02:16:49;;;;;;;21.87;17.70;;;;;;;21.22;63.55;100462.06;4937522;29;20056;-80
2022/08/05 02:19:34;;;;;;;23.55;17.73;;;;;;;21.21;63.51;100456.81;4937369;29;20062;-82
2022/08/05 02:22:21;;;;;;;22.77;18.15;;;;;;;21.19;63.67;100462.19;4937318;29;20095;-78
2022/08/05 02:24:57;;;;;;;20.90;16.88;;;;;;;21.27;63.55;100469.88;4937246;29;20150;-82
2022/08/05 02:27:29;;;;;;;22.05;18.08;;;;;;;21.38;63.13;100470.44;4937727;29;20070;-82
2022/08/05 02:30:17;;;;;;;23.40;17.23;;;;;;;21.47;63.01;100480.81;4937451;29;20055;-82
2022/08/05 02:32:48;;;;;;;23.08;17.92;;;;;;;21.56;62.57;100489.41;4937313;29;20047;-80
2022/08/05 02:35:19;;;;;;;22.20;17.75;;;;;;;21.68;62.17;100481.91;4933886;29;20138;-79
2022/08/05 02:37:56;;;;;;;23.42;17.98;;;;;;;21.75;62.07;100484.38;4918088;29;20434;-81
2022/08/05 02:40:28;;;;;;;29.23;18.00;;;;;;;21.70;62.23;100492.47;4931769;29;20078;-85
2022/08/05 02:42:57;;;;;;;21.35;17.42;;;;;;;21.70;62.07;100497.78;4918179;29;20103;-81
2022/08/05 02:45:26;;;;;;;24.67;17.13;;;;;;;21.69;62.10;100498.72;4917906;29;20052;-81
2022/08/05 02:48:16;;;;;;;23.35;17.15;;;;;;;21.63;62.21;100497.13;4918438;29;20521;-81
2022/08/05 02:50:46;;;;;;;21.17;16.67;;;;;;;21.51;62.44;100489.56;4901188;29;20056;-79
2022/08/05 02:53:17;;;;;;;21.83;16.15;;;;;;;21.36;62.29;100482.91;4918016;29;20518;-80
2022/08/05 02:55:51;;;;;;;20.88;16.48;;;;;;;21.52;62.45;100490.44;4916748;29;20111;-79
2022/08/05 02:58:29;;;;;;;23.70;16.98;;;;;;;21.56;62.47;100527.47;4916325;29;20091;-81
2022/08/05 03:00:59;;;;;;;23.25;17.17;;;;;;;21.63;62.24;100512.22;4917646;29;20087;-82
2022/08/05 03:03:29;;;;;;;20.77;16.27;;;;;;;21.70;61.87;100520.84;4918848;29;20048;-80
2022/08/05 03:06:00;;;;;;;20.25;15.43;;;;;;;21.43;61.84;100487.13;4901302;29;20151;-82
2022/08/05 03:08:51;;;;;;;19.42;16.23;;;;;;;21.54;61.98;100508.06;4917803;29;20466;-83
2022/08/05 03:11:24;;;;;;;21.63;15.90;;;;;;;21.36;61.63;100448.38;4904768;29;20577;-83
2022/08/05 03:14:12;;;;;;;18.75;14.77;;;;;;;21.81;61.23;100513.38;4936804;29;20051;-82
2022/08/05 03:16:40;;;;;;;22.65;15.40;;;;;;;22.00;60.82;100521.63;4950245;29;20040;-80
2022/08/05 03:19:07;;;;;;;22.27;16.02;;;;;;;21.89;60.39;100474.97;4951765;29;20056;-77
2022/08/05 03:21:55;;;;;;;30.52;15.90;;;;;;;22.18;60.29;100510.38;4942079;29;20062;-77
2022/08/05 03:24:25;;;;;;;31.42;14.93;;;;;;;22.21;60.09;100517.38;4924555;29;20060;-82
2022/08/05 03:26:58;;;;;;;21.40;15.75;;;;;;;22.28;59.90;100513.63;4917249;29;20064;-80
2022/08/05 03:29:27;;;;;;;22.65;15.80;;;;;;;22.39;59.69;100510.56;4917538;29;20055;-79
2022/08/05 03:32:16;;;;;;;24.05;14.45;;;;;;;22.42;59.06;100495.38;4931717;29;20047;-78
2022/08/05 03:34:45;;;;;;;24.00;15.48;;;;;;;22.43;58.84;100475.81;4935509;29;20060;-80
2022/08/05 03:37:22;;;;;;;21.02;15.13;;;;;;;22.75;58.61;100518.19;4935231;29;20052;-80
2022/08/05 03:39:58;;;;;;;22.80;15.48;;;;;;;22.72;58.30;100524.50;4923069;29;20111;-80
2022/08/05 03:42:30;;;;;;;21.90;14.55;;;;;;;22.72;58.50;100513.84;4927303;29;20114;-80
2022/08/05 03:44:58;;;;;;;24.70;15.20;;;;;;;22.85;58.12;100532.91;4933720;29;20205;-85
2022/08/05 03:47:29;;;;;;;22.63;15.00;;;;;;;22.88;58.08;100522.97;4935464;29;20139;-84
2022/08/05 03:50:02;;;;;;;25.50;14.65;;;;;;;22.86;57.78;100502.66;4919698;29;20058;-82
2022/08/05 03:52:36;;;;;;;20.83;14.32;;;;;;;23.06;57.42;100536.59;4915926;29;20179;-80
2022/08/05 03:55:34;;;;;;;23.15;15.23;;;;;;;22.96;57.54;100517.38;4916378;29;20059;-82
2022/08/05 03:58:25;;;;;;;21.23;14.20;;;;;;;23.09;57.36;100524.00;4918502;29;20151;-83
2022/08/05 04:00:58;;;;;;;21.15;15.02;;;;;;;23.10;57.20;100540.84;4935102;29;20114;-83
2022/08/05 04:03:28;;;;;;;24.50;14.88;;;;;;;23.08;57.09;100524.94;4934499;29;20142;-81
2022/08/05 04:05:57;;;;;;;21.08;15.15;;;;;;;23.08;56.80;100522.28;4935170;29;20055;-84
2022/08/05 04:08:26;;;;;;;20.33;14.98;;;;;;;23.21;56.73;100546.66;4923284;29;20056;-85
2022/08/05 04:11:06;;;;;;;25.17;14.82;;;;;;;23.23;56.54;100542.16;4897211;29;20053;-84
2022/08/05 04:13:39;;;;;;;22.38;15.20;;;;;;;23.29;56.35;100541.03;4905537;29;20055;-82
2022/08/05 04:16:16;;;;;;;23.30;15.10;;;;;;;23.29;56.27;100533.91;4934099;29;20089;-79
2022/08/05 04:18:58;;;;;;;21.90;14.10;;;;;;;23.41;56.18;100545.03;4939024;29;20055;-84
2022/08/05 04:21:26;;;;;;;24.10;14.48;;;;;;;23.45;55.93;100549.31;4939330;29;20062;-80
2022/08/05 04:24:15;;;;;;;20.33;14.90;;;;;;;23.43;55.70;100535.19;4955886;29;20036;-78
2022/08/05 04:26:49;;;;;;;18.92;13.65;;;;;;;23.48;55.59;100550.03;4953720;29;20082;-80
2022/08/05 04:29:17;;;;;;;17.83;13.25;;;;;;;23.57;55.15;100543.47;4951365;28;20055;-77
2022/08/05 04:31:46;;;;;;;18.98;13.60;;;;;;;23.61;54.97;100552.25;4969520;29;20079;-78
2022/08/05 04:34:16;;;;;;;19.00;14.10;;;;;;;23.61;55.10;100547.75;4946483;29;20115;-78
2022/08/05 04:37:00;;;;;;;26.15;15.18;;;;;;;23.70;54.96;100536.75;4931886;29;20080;-77
2022/08/05 04:39:30;;;;;;;17.48;13.27;;;;;;;23.82;54.54;100547.88;4921471;29;20535;-79
2022/08/05 04:41:59;;;;;;;23.13;14.13;;;;;;;23.55;54.62;100480.47;4902560;29;20509;-81
2022/08/05 04:44:31;;;;;;;23.73;14.00;;;;;;;24.07;54.32;100559.28;4920490;29;20080;-81
2022/08/05 04:47:00;;;;;;;19.47;13.10;;;;;;;24.10;54.03;100548.47;4919713;29;20064;-83
2022/08/05 04:49:39;;;;;;;19.25;13.43;;;;;;;24.15;53.76;100556.28;4924959;29;20300;-78
2022/08/05 04:52:28;;;;;;;20.52;14.60;;;;;;;24.17;53.62;100556.22;4923317;29;20071;-78
2022/08/05 04:55:01;;;;;;;21.65;15.10;;;;;;;24.16;53.87;100535.81;4920169;29;20458;-80
2022/08/05 04:57:42;;;;;;;;;;;;;;;23.92;54.38;100547.44;4920391;29;20087;-80
2022/08/05 05:00:14;;;;;;;21.92;14.50;;;;;;;24.06;53.75;100524.66;4919460;29;19927;-79
2022/08/05 05:02:43;;;;;;;26.55;16.65;;;;;;;24.40;52.88;100529.41;4902859;29;20418;-81
2022/08/05 05:05:12;;;;;;;24.70;15.52;;;;;;;24.63;52.55;100552.47;4920092;29;20048;-78
2022/08/05 05:07:58;;;;;;;24.83;14.48;;;;;;;24.66;52.10;100536.31;4919443;29;20151;-81
2022/08/05 05:10:29;;;;;;;21.92;14.07;;;;;;;24.89;51.43;100548.63;4919549;29;20451;-79
2022/08/05 05:13:00;;;;;;;24.30;15.43;;;;;;;25.09;50.96;100542.38;4902139;29;20071;-81
2022/08/05 05:15:31;;;;;;;23.27;14.73;;;;;;;25.36;50.15;100536.72;4932377;29;20486;-81
2022/08/05 05:18:18;;;;;;;24.65;15.40;;;;;;;25.50;49.74;100514.66;4900317;29;20058;-81
2022/08/05 05:21:02;;;;;;;23.95;14.98;;;;;;;25.90;48.75;100544.84;4912939;29;20059;-78
2022/08/05 05:23:31;;;;;;;27.52;14.80;;;;;;;25.60;48.52;100453.53;4899170;29;20056;-79
2022/08/05 05:26:20;;;;;;;25.30;14.82;;;;;;;26.09;47.82;100502.84;4898876;29;20052;-78
2022/08/05 05:29:01;;;;;;;25.10;14.43;;;;;;;26.48;47.23;100547.25;4899780;29;20116;-78
2022/08/05 05:31:41;;;;;;;22.88;14.32;;;;;;;26.17;46.86;100486.38;4899453;29;20067;-79
2022/08/05 05:34:14;;;;;;;23.58;13.48;;;;;;;26.38;46.37;100513.00;4899995;29;20071;-79
2022/08/05 05:36:50;;;;;;;22.88;14.55;;;;;;;26.78;46.09;100546.63;4913414;29;20052;-78
2022/08/05 05:39:19;;;;;;;25.33;15.20;;;;;;;26.69;45.66;100513.09;4915109;29;20108;-79
2022/08/05 05:41:51;;;;;;;23.98;13.77;;;;;;;26.77;45.58;100542.19;4899928;29;20060;-79
2022/08/05 05:44:22;;;;;;;26.20;14.68;;;;;;;26.91;45.50;100546.78;4914847;29;20424;-81
2022/08/05 05:47:02;;;;;;;21.50;14.13;;;;;;;27.03;45.22;100554.19;4903568;29;20522;-80
2022/08/05 05:49:35;;;;;;;22.73;13.13;;;;;;;27.04;45.04;100553.25;4938217;29;20056;-81
2022/08/05 05:52:07;;;;;;;20.80;13.02;;;;;;;27.23;44.24;100549.56;4938253;29;20103;-80
2022/08/05 05:54:35;;;;;;;;;;;;;;;27.20;45.38;100547.03;4938132;29;20055;-81
2022/08/05 05:57:19;;;;;;;21.30;12.40;;;;;;;27.39;43.31;100528.16;4939596;29;19933;-82
2022/08/05 05:59:47;;;;;;;22.02;12.73;;;;;;;27.66;43.19;100545.38;4941562;29;20062;-81
2022/08/05 06:02:16;;;;;;;24.05;11.95;;;;;;;27.61;43.07;100546.56;4937924;29;20064;-81
2022/08/05 06:05:10;;;;;;;17.95;10.73;;;;;;;27.68;42.68;100554.16;4937868;29;20082;-82
2022/08/05 06:07:43;;;;;;;19.43;11.37;;;;;;;27.53;42.55;100525.53;4926744;29;20052;-82
2022/08/05 06:10:31;;;;;;;17.27;10.23;;;;;;;27.78;41.90;100543.78;4910623;29;20135;-80
2022/08/05 06:13:04;;;;;;;18.65;11.32;;;;;;;27.90;41.85;100513.59;4918167;29;20482;-81
2022/08/05 06:15:33;;;;;;;17.98;10.80;;;;;;;28.34;41.66;100539.59;4917858;29;20107;-81
2022/08/05 06:18:21;;;;;;;;;;;;;;;28.31;42.52;100542.50;4918949;29;20076;-81
2022/08/05 06:20:59;;;;;;;19.08;10.20;;;;;;;28.65;40.75;100551.22;4918190;29;19933;-80
2022/08/05 06:23:28;;;;;;;14.68;10.35;;;;;;;28.63;40.82;100517.31;4901532;29;20506;-80
2022/08/05 06:26:12;;;;;;;15.90;9.55;;;;;;;28.78;40.85;100540.56;4917816;29;20060;-79
2022/08/05 06:28:51;;;;;;;15.65;10.57;;;;;;;28.48;40.40;100511.03;4917954;29;20079;-79
2022/08/05 06:31:19;;;;;;;15.73;10.38;;;;;;;28.47;41.15;100520.94;4900589;29;20070;-79
2022/08/05 06:33:57;;;;;;;16.73;11.40;;;;;;;28.45;41.73;100555.09;4917574;29;20147;-78
2022/08/05 06:36:36;;;;;;;19.15;12.02;;;;;;;28.32;42.58;100548.72;4918225;29;20063;-79
2022/08/05 06:39:25;;;;;;;22.95;12.73;;;;;;;28.26;43.24;100565.19;4918237;29;20067;-79
2022/08/05 06:42:02;;;;;;;19.85;11.40;;;;;;;28.33;42.38;100545.97;4936427;29;20110;-79
2022/08/05 06:44:31;;;;;;;23.92;13.43;;;;;;;28.45;42.13;100546.16;4936778;29;20077;-80
2022/08/05 06:47:00;;;;;;;19.63;12.10;;;;;;;28.53;42.46;100539.41;4947865;29;20054;-79
2022/08/05 06:49:29;;;;;;;23.88;11.50;;;;;;;28.82;42.11;100543.94;4927904;29;20066;-80
2022/08/05 06:52:19;;;;;;;16.35;11.13;;;;;;;28.96;41.41;100535.88;4936435;29;20052;-79
2022/08/05 06:55:06;;;;;;;16.80;10.50;;;;;;;29.04;41.29;100555.09;4936356;29;20062;-80
2022/08/05 06:57:35;;;;;;;21.55;10.98;;;;;;;28.90;40.95;100537.13;4935932;29;20421;-80
2022/08/05 07:00:23;;;;;;;19.20;11.15;;;;;;;28.99;41.01;100551.81;4936590;29;20600;-80
2022/08/05 07:02:53;;;;;;;23.52;11.95;;;;;;;29.02;41.14;100545.38;4927660;29;20478;-79
2022/08/05 07:05:21;;;;;;;18.98;10.68;;;;;;;29.25;40.15;100560.94;4917195;29;20064;-80
2022/08/05 07:08:06;;;;;;;16.27;10.07;;;;;;;29.23;39.60;100551.25;4917057;29;20197;-80
2022/08/05 07:10:38;;;;;;;11.07;7.95;;;;;;;29.13;38.96;100516.03;4917501;29;20056;-80
2022/08/05 07:16:48;;;;;;;13.38;8.05;;;;;;;29.65;38.27;100544.94;4915745;29;20459;-80
2022/08/05 07:19:37;;;;;;;15.43;8.07;;;;;;;29.55;37.27;100536.59;4917318;29;20079;-79
2022/08/05 07:22:26;;;;;;;14.25;8.02;;;;;;;29.64;36.85;100534.25;4917593;29;20146;-80
2022/08/05 07:24:59;;;;;;;9.88;7.55;;;;;;;29.78;37.12;100526.19;4917350;29;20060;-79
2022/08/05 07:27:49;;;;;;;9.00;7.35;;;;;;;29.93;36.29;100538.59;4917325;29;20150;-80
2022/08/05 07:30:30;;;;;;;11.68;7.65;;;;;;;29.94;36.30;100543.03;4917175;29;20064;-79
2022/08/05 07:33:02;;;;;;;10.00;8.25;;;;;;;29.77;36.23;100533.41;4917240;29;20059;-77
2022/08/05 07:35:39;;;;;;;10.52;7.80;;;;;;;29.77;36.52;100532.50;4916092;29;20166;-78
2022/08/05 07:38:27;;;;;;;11.48;7.90;;;;;;;29.82;36.39;100535.78;4916584;29;20052;-78
2022/08/05 07:41:11;;;;;;;12.38;8.43;;;;;;;29.93;36.35;100514.38;4916880;29;20060;-78
2022/08/05 07:43:59;;;;;;;10.80;8.18;;;;;;;30.22;35.82;100519.59;4899897;29;20532;-79
2022/08/05 07:46:31;;;;;;;10.68;8.35;;;;;;;30.35;35.84;100538.50;4916386;29;20052;-81
2022/08/05 07:49:01;;;;;;;10.77;7.95;;;;;;;30.28;36.26;100515.63;4917498;29;20088;-79
2022/08/05 07:51:37;;;;;;;9.20;8.27;;;;;;;29.90;35.72;100489.47;4917180;29;20048;-79
2022/08/05 07:54:27;;;;;;;9.50;8.32;;;;;;;29.93;36.05;100510.81;4929780;29;20482;-78
2022/08/05 07:57:02;;;;;;;11.23;8.43;;;;;;;29.90;35.46;100476.00;4929991;29;20076;-79
2022/08/05 07:59:51;;;;;;;8.88;7.07;;;;;;;29.87;35.98;100516.63;4923307;29;20058;-80
2022/08/05 08:02:26;;;;;;;10.32;8.23;;;;;;;29.82;35.87;100498.09;4919360;29;20598;-81
2022/08/05 08:05:15;;;;;;;9.35;7.85;;;;;;;29.98;35.74;100504.16;4953145;29;20060;-78
2022/08/05 08:07:43;;;;;;;9.10;7.18;;;;;;;30.18;34.90;100502.81;4924269;29;20046;-79
2022/08/05 08:10:27;;;;;;;8.10;7.30;;;;;;;30.29;35.10;100499.41;4937528;29;20071;-80
2022/08/05 08:12:56;;;;;;;11.55;7.18;;;;;;;30.28;34.94;100500.34;4917372;29;20529;-82
2022/08/05 08:15:25;;;;;;;8.00;7.18;;;;;;;30.27;34.80;100492.38;4917291;29;20056;-82
2022/08/05 08:18:15;;;;;;;8.97;6.93;;;;;;;30.02;34.68;100473.34;4915650;29;20055;-83
2022/08/05 08:20:50;;;;;;;7.35;6.53;;;;;;;30.17;35.40;100514.53;4913542;29;20434;-81
2022/08/05 08:23:32;;;;;;;8.50;7.03;;;;;;;29.85;35.25;100524.78;4915370;29;20395;-81
2022/08/05 08:26:26;;;;;;;7.43;6.63;;;;;;;29.56;35.80;100507.88;4918749;29;20467;-82
2022/08/05 08:28:59;;;;;;;11.27;6.53;;;;;;;29.71;35.41;100501.50;4915488;29;20140;-81
2022/08/05 08:31:49;;;;;;;9.63;6.85;;;;;;;29.87;35.36;100485.16;4914710;29;20060;-82
2022/08/05 08:34:20;;;;;;;8.37;6.90;;;;;;;30.09;34.95;100487.25;4914045;29;20400;-84
2022/08/05 08:37:00;;;;;;;7.10;6.40;;;;;;;29.70;34.24;100428.91;4915290;29;20120;-82
2022/08/05 08:39:31;;;;;;;8.82;6.40;;;;;;;29.97;34.62;100497.03;4919995;29;20056;-84
2022/08/05 08:42:05;;;;;;;7.82;6.72;;;;;;;29.69;34.74;100471.13;4915350;29;20072;-83
2022/08/05 08:44:56;;;;;;;7.97;6.70;;;;;;;29.89;35.22;100496.69;4915578;29;20063;-83
2022/08/05 08:47:45;;;;;;;9.52;5.95;;;;;;;29.98;34.24;100505.97;4915610;29;20056;-83
2022/08/05 08:50:33;;;;;;;6.20;5.60;;;;;;;29.92;33.77;100499.19;4923133;29;20048;-80
2022/08/05 08:53:27;;;;;;;8.10;5.95;;;;;;;30.11;33.54;100489.84;4919837;29;20104;-82
2022/08/05 08:55:56;;;;;;;7.65;6.20;;;;;;;30.12;32.92;100446.66;4930990;29;20063;-81
2022/08/05 08:58:32;;;;;;;8.27;6.25;;;;;;;30.50;32.29;100486.28;4918214;29;20056;-81
2022/08/05 09:01:19;;;;;;;7.07;6.28;;;;;;;30.39;32.44;100492.41;4940332;29;20070;-81
2022/08/05 09:03:50;;;;;;;7.28;5.75;;;;;;;30.37;31.88;100498.84;4927354;29;20055;-81
2022/08/05 09:06:29;;;;;;;10.00;5.95;;;;;;;30.44;31.65;100477.72;4912230;29;20068;-83
2022/08/05 09:08:59;;;;;;;8.93;6.32;;;;;;;30.54;31.60;100485.06;4909148;29;20060;-82
2022/08/05 09:11:29;;;;;;;8.77;6.25;;;;;;;30.13;31.90;100451.06;4921366;29;20193;-81
2022/08/05 09:14:18;;;;;;;7.82;6.28;;;;;;;29.75;32.08;100445.59;4926713;29;20513;-81
2022/08/05 09:17:14;;;;;;;9.10;6.30;;;;;;;30.23;31.43;100474.69;4919137;29;20078;-81
2022/08/05 09:20:04;;;;;;;9.23;6.22;;;;;;;30.48;31.33;100484.63;4919524;29;20063;-82
2022/08/05 09:23:16;;;;;;;9.07;6.18;;;;;;;30.48;30.92;100469.34;4919745;29;20056;-81
2022/08/05 09:25:50;;;;;;;10.02;5.85;;;;;;;30.65;30.91;100475.34;4901962;29;20553;-82
2022/08/05 09:28:32;;;;;;;7.15;6.05;;;;;;;30.85;30.51;100471.22;4933319;29;20071;-82
2022/08/05 09:31:07;;;;;;;9.13;6.07;;;;;;;30.86;30.40;100428.00;4919066;29;20124;-81
2022/08/05 09:34:00;;;;;;;9.50;6.15;;;;;;;31.14;30.81;100469.16;4925229;29;20051;-81
2022/08/05 09:36:49;;;;;;;7.88;5.90;;;;;;;30.81;30.90;100476.00;4938041;29;20055;-82
2022/08/05 09:39:25;;;;;;;14.25;6.38;;;;;;;30.76;30.85;100475.44;4937670;29;20390;-81
2022/08/05 09:42:21;;;;;;;7.63;6.22;;;;;;;30.47;31.79;100464.91;4937765;29;20052;-83
2022/08/05 09:45:05;;;;;;;7.35;5.78;;;;;;;30.32;31.45;100457.91;4937755;29;20058;-83
2022/08/05 09:47:53;;;;;;;9.38;5.90;;;;;;;30.15;31.39;100470.69;4937712;29;20056;-83
2022/08/05 09:50:37;;;;;;;7.93;5.95;;;;;;;29.93;32.11;100427.34;4937693;29;20055;-83
2022/08/05 09:53:10;;;;;;;8.68;6.32;;;;;;;29.96;32.23;100464.81;4937453;29;20079;-83
2022/08/05 09:55:57;;;;;;;6.22;5.28;;;;;;;29.87;32.30;100468.16;4952601;29;20103;-82
2022/08/05 09:58:37;;;;;;;8.57;6.28;;;;;;;29.75;32.66;100456.38;4937877;29;20075;-82
2022/08/05 10:01:11;;;;;;;7.00;6.10;;;;;;;29.45;32.60;100427.84;4939703;29;20067;-82
2022/08/05 10:04:18;;;;;;;6.80;6.05;;;;;;;29.52;32.27;100466.81;4939106;29;20071;-83
2022/08/05 10:06:56;;;;;;;7.38;5.75;;;;;;;29.62;32.21;100437.47;4936733;29;20509;-83
2022/08/05 10:09:25;;;;;;;10.02;5.95;;;;;;;29.84;32.34;100450.38;4937109;28;20059;-82
2022/08/05 10:12:16;;;;;;;9.27;6.03;;;;;;;29.78;32.09;100445.41;4945781;29;20086;-80
2022/08/05 10:15:17;;;;;;;7.88;6.38;;;;;;;30.07;31.75;100450.63;4939359;28;20062;-82
2022/08/05 10:18:03;;;;;;;6.78;5.90;;;;;;;30.53;31.42;100452.84;4936763;29;20462;-82
2022/08/05 10:20:34;;;;;;;6.70;6.10;;;;;;;30.67;30.40;100459.94;4952289;29;20054;-80
2022/08/05 10:23:01;;;;;;;7.72;5.88;;;;;;;30.82;30.73;100446.25;4937560;29;20514;-81
2022/08/05 10:25:29;;;;;;;7.65;6.32;;;;;;;30.86;30.25;100459.50;4937274;29;20143;-81
2022/08/05 10:28:00;;;;;;;6.65;5.90;;;;;;;30.90;30.00;100448.41;4924150;29;20052;-83
2022/08/05 10:30:45;;;;;;;10.40;6.75;;;;;;;30.65;30.17;100441.16;4918137;29;20107;-82
2022/08/05 10:33:34;;;;;;;7.78;6.13;;;;;;;30.89;30.01;100456.59;4918758;29;20080;-80
2022/08/05 10:36:03;;;;;;;8.00;6.07;;;;;;;30.81;29.27;100425.63;4918380;29;20609;-81
2022/08/05 10:38:35;;;;;;;8.23;5.93;;;;;;;31.27;28.84;100434.91;4901575;29;20257;-83
2022/08/05 10:41:15;;;;;;;8.02;6.40;;;;;;;31.42;28.32;100451.78;4942278;29;20382;-80
2022/08/05 10:43:59;;;;;;;10.00;6.73;;;;;;;31.41;28.47;100452.78;4928103;29;20544;-82
2022/08/05 10:46:50;;;;;;;7.22;6.20;;;;;;;31.52;28.08;100442.06;4937761;29;20048;-81
2022/08/05 10:49:24;;;;;;;6.68;5.75;;;;;;;31.73;27.98;100444.97;4923558;29;20071;-81
2022/08/05 10:51:59;;;;;;;8.60;6.25;;;;;;;31.87;28.30;100434.94;4917658;29;20064;-81
2022/08/05 10:55:03;;;;;;;11.05;6.47;;;;;;;31.67;28.93;100458.09;4916000;29;20056;-80
2022/08/05 10:57:33;;;;;;;6.97;6.30;;;;;;;31.53;29.05;100440.22;4916162;29;20051;-81
2022/08/05 11:00:17;;;;;;;7.07;6.05;;;;;;;31.31;28.99;100413.94;4924828;29;20162;-80
2022/08/05 11:03:05;;;;;;;7.35;6.13;;;;;;;31.29;29.01;100437.50;4922267;29;20058;-80
2022/08/05 11:06:09;;;;;;;8.07;6.10;;;;;;;31.44;29.13;100430.97;4925781;29;20058;-80
2022/08/05 11:09:17;;;;;;;6.68;5.95;;;;;;;31.61;28.64;100437.81;4929719;29;20056;-79
2022/08/05 11:11:53;;;;;;;10.20;6.43;;;;;;;31.40;28.05;100389.81;4924270;29;20063;-80
2022/08/05 11:14:37;;;;;;;7.82;6.30;;;;;;;31.40;28.27;100381.72;4917535;29;20438;-82
2022/08/05 11:17:31;;;;;;;8.07;5.70;;;;;;;31.79;27.53;100432.84;4917311;29;20404;-81
2022/08/05 11:20:36;;;;;;;7.43;5.97;;;;;;;31.56;27.68;100427.34;4938939;28;20052;-80
2022/08/05 11:23:35;;;;;;;6.72;5.65;;;;;;;31.36;28.30;100428.84;4936118;29;20056;-81
2022/08/05 11:26:25;;;;;;;8.27;6.20;;;;;;;31.12;28.51;100411.75;4927750;29;20051;-79
2022/08/05 11:29:04;;;;;;;8.60;6.20;;;;;;;31.10;27.97;100378.63;4936100;29;20051;-78
2022/08/05 11:31:43;;;;;;;9.13;5.70;;;;;;;31.37;27.20;100408.94;4908840;29;20060;-79
2022/08/05 11:34:40;;;;;;;5.88;5.38;;;;;;;31.43;27.18;100378.84;4920417;29;20107;-80
2022/08/05 11:37:58;;;;;;;6.32;5.72;;;;;;;31.99;26.73;100418.69;4928250;29;20051;-82
2022/08/05 11:40:58;;;;;;;8.80;5.90;;;;;;;31.99;26.17;100416.00;4925574;29;20076;-83
2022/08/05 11:43:59;;;;;;;6.47;5.65;;;;;;;32.07;26.10;100425.34;4933423;29;20048;-82
2022/08/05 11:46:40;;;;;;;6.85;5.45;;;;;;;32.14;25.87;100424.75;4949813;29;20576;-82
2022/08/05 11:49:30;;;;;;;7.72;5.50;;;;;;;32.12;26.02;100418.59;4935829;29;20095;-80
2022/08/05 11:52:01;;;;;;;7.75;5.43;;;;;;;32.03;26.36;100414.78;4918849;29;20056;-81
2022/08/05 11:54:40;;;;;;;6.33;5.70;;;;;;;32.28;26.52;100423.66;4917771;29;20063;-81
2022/08/05 11:57:16;;;;;;;6.57;5.40;;;;;;;32.31;26.69;100403.63;4930861;29;20135;-81
2022/08/05 11:59:54;;;;;;;7.22;6.00;;;;;;;32.61;26.33;100421.97;4901070;29;20051;-81
2022/08/05 12:02:28;;;;;;;6.60;5.55;;;;;;;32.41;26.32;100372.19;4916245;29;20146;-83
2022/08/05 12:05:02;;;;;;;6.47;5.53;;;;;;;32.55;26.22;100411.66;4914818;29;20067;-80
2022/08/05 12:07:37;;;;;;;8.85;5.40;;;;;;;32.32;25.98;100438.66;4916219;29;20538;-81
2022/08/05 12:10:27;;;;;;;9.02;5.30;;;;;;;31.94;25.48;100377.63;4916343;29;20056;-80
2022/08/05 12:13:15;;;;;;;7.90;5.60;;;;;;;31.76;26.74;100388.03;4916769;29;20631;-80
2022/08/05 12:16:06;;;;;;;7.22;5.43;;;;;;;31.74;27.25;100410.72;4915896;29;20529;-81